• Join FlightAware (Why Join?)
  • Login
  • US Flag 
09:26PM EDT


 

Airport Tracker/Info


-or-


 

Live Flight TrackerFlight Track Log ✈ N496DA ✈ 10-Feb-2014 ✈ KSFB - KTLH

Flight Track Log - Related Links

Times and Time Zones

All times are in EST time to prevent confusion due to time zone crossing. See the N496DA flight status page for this flight to view local times or setup timezone preferences in your user account.

Time Position Orientation Groundspeed Altitude Reporting Facility
EST Latitude Longitude Course Direction KTS MPH feet Rate Location/Type
02:04PM 28.7833 -81.2167 53° Northeast 99 114 600  Level Orlando TRACON
02:06PM 28.8167 -81.1667 53° Northeast 106 122 1,900 660 Climbing Orlando TRACON
02:07PM 28.8500 -81.1333 41° Northeast 117 135 2,700 600 Climbing Orlando TRACON
02:08PM 28.8667 -81.1167 41° Northeast 105 121 3,100 540 Climbing Orlando TRACON
02:09PM 28.8667 -81.1500 270° West 100 115 3,800 420 Climbing Orlando TRACON
02:10PM 28.8667 -81.1833 270° West 121 139 4,000 60 Climbing Orlando TRACON
02:11PM 28.8500 -81.2333 249° West 136 157 4,000 -60 Level Orlando TRACON
02:12PM 28.8500 -81.2667 270° West 138 159 3,900 120 Descending Orlando TRACON
02:13PM 28.8333 -81.3167 249° West 134 154 4,300 420 Climbing Orlando TRACON
02:15PM 28.8333 -81.3833 270° West 107 123 5,300 540 Climbing Orlando TRACON
02:16PM 28.8167 -81.4167 240° Southwest 83 96 6,000 540 Climbing Orlando TRACON
02:17PM 28.8167 -81.4333 270° West 90 104 6,300 420 Climbing Orlando TRACON
02:18PM 28.8167 -81.4667 270° West 98 113 6,900 480 Climbing Orlando TRACON
02:19PM 28.8000 -81.5000 240° Southwest 100 115 7,400 480 Climbing Orlando TRACON
02:21PM 28.7833 -81.5500 249° West 87 100 8,300 360 Climbing Orlando TRACON
02:22PM 28.7833 -81.5833 270° West 90 104 8,600 300 Climbing Orlando TRACON
02:23PM 28.7761 -81.6253 259° West 91 105 9,200 360 Climbing Jacksonville Center
02:24PM 28.7700 -81.6539 256° West 89 102 9,600 360 Climbing Jacksonville Center
02:25PM 28.7661 -81.6822 261° West 83 96 10,000 120 Climbing Jacksonville Center
02:28PM 28.7667 -81.7439 266° West 125 144 10,000  Level Jacksonville Center
02:29PM 28.7878 -81.7744 308° West 130 150 10,000  Level Jacksonville Center
02:31PM 28.8281 -81.8428 304° West 124 143 10,000  Level Jacksonville Center
02:32PM 28.8469 -81.8733 305° West 120 138 10,000  Level Jacksonville Center
02:33PM 28.8703 -81.9039 311° West 124 143 10,000  Level Jacksonville Center
02:34PM 28.8914 -81.9369 306° West 127 146 10,000  Level Jacksonville Center
02:35PM 28.9103 -81.9675 305° West 124 143 10,000  Level Jacksonville Center
02:36PM 28.9314 -82.0006 306° West 123 142 10,000  Level Jacksonville Center
02:37PM 28.9547 -82.0336 309° West 125 144 10,000  Level Jacksonville Center
02:38PM 28.9758 -82.0642 308° West 125 144 10,000  Level Jacksonville Center
02:39PM 28.9947 -82.0997 301° West 125 144 10,000  Level Jacksonville Center
02:40PM 29.0158 -82.1303 308° West 123 142 10,000  Level Jacksonville Center
02:41PM 29.0389 -82.1633 309° West 124 143 10,000 -60 Level Jacksonville Center
02:42PM 29.0581 -82.1942 305° West 121 139 9,900  Descending Jacksonville Center
02:44PM 29.0981 -82.2581 306° West 121 139 10,000  Climbing Jacksonville Center
02:45PM 29.1189 -82.2911 306° West 122 140 10,000  Level Jacksonville Center
02:46PM 29.1358 -82.3219 302° West 123 142 10,000  Level Jacksonville Center
02:47PM 29.1589 -82.3528 311° West 118 136 10,000  Level Jacksonville Center
02:49PM 29.1989 -82.4167 306° West 120 138 10,000  Level Jacksonville Center
02:50PM 29.2197 -82.4500 306° West 121 139 10,000  Level Jacksonville Center
02:51PM 29.2408 -82.4808 308° West 121 139 10,000  Level Jacksonville Center
02:52PM 29.2597 -82.5117 305° West 121 139 10,000  Level Jacksonville Center
02:53PM 29.2744 -82.5356 305° West 123 142 10,000  Level Jacksonville Center
02:54PM 29.2953 -82.5686 306° West 123 142 10,000 -120 Level Jacksonville Center
02:54PM 29.2975 -82.5711 316° Northwest 118 136 9,900  Descending Jacksonville Center
02:55PM 29.3183 -82.6044 306° West 118 136 10,000  Climbing Jacksonville Center
02:56PM 29.3331 -82.6258 308° West 118 136 10,000  Level Jacksonville Center
02:57PM 29.3519 -82.6544 307° West 118 136 10,000  Level Jacksonville Center
02:58PM 29.3686 -82.6828 304° West 118 136 10,000  Level Jacksonville Center
02:59PM 29.3894 -82.7139 308° West 118 136 10,000  Level Jacksonville Center
03:01PM 29.4250 -82.7758 303° West 123 142 10,000  Level Jacksonville Center
03:02PM 29.4461 -82.8067 308° West 123 142 10,000  Level Jacksonville Center
03:04PM 29.4878 -82.8639 310° West 123 142 10,000  Level Jacksonville Center
03:05PM 29.5067 -82.8925 307° West 128 147 10,000  Level Jacksonville Center
03:07PM 29.5461 -82.9569 305° West 123 142 10,000  Level Jacksonville Center
03:09PM 29.5775 -83.0144 302° West 118 136 10,000  Level Jacksonville Center
03:10PM 29.5942 -83.0456 302° West 118 136 10,000  Level Jacksonville Center
03:11PM 29.6150 -83.0742 310° West 118 136 10,000  Level Jacksonville Center
03:12PM 29.6336 -83.1028 307° West 118 136 10,000  Level Jacksonville Center
03:13PM 29.6503 -83.1339 302° West 118 136 10,000  Level Jacksonville Center
03:14PM 29.6692 -83.1628 307° West 118 136 10,000  Level Jacksonville Center
03:15PM 29.6858 -83.1892 306° West 118 136 10,000  Level Jacksonville Center
03:16PM 29.7067 -83.2203 308° West 123 142 10,000  Level Jacksonville Center
03:17PM 29.7233 -83.2464 306° West 118 136 10,000  Level Jacksonville Center
03:18PM 29.7439 -83.2825 303° West 118 136 10,000  Level Jacksonville Center
03:19PM 29.7606 -83.3114 304° West 118 136 10,000  Level Jacksonville Center
03:20PM 29.7792 -83.3400 307° West 118 136 10,000  Level Jacksonville Center
03:21PM 29.7958 -83.3689 304° West 118 136 10,000  Level Jacksonville Center
03:22PM 29.8144 -83.3978 307° West 118 136 10,000  Level Jacksonville Center
03:23PM 29.8311 -83.4242 306° West 113 130 10,000  Level Jacksonville Center
03:24PM 29.8478 -83.4531 304° West 113 130 10,000  Level Jacksonville Center
03:26PM 29.8850 -83.5083 308° West 108 124 10,000  Level Jacksonville Center
03:27PM 29.9017 -83.5372 304° West 108 124 10,000  Level Jacksonville Center
03:28PM 29.9181 -83.5658 303° West 108 124 10,000  Level Jacksonville Center
03:29PM 29.9347 -83.5900 309° West 108 124 10,000  Level Jacksonville Center
03:30PM 29.9514 -83.6189 304° West 108 124 10,000  Level Jacksonville Center
03:31PM 29.9700 -83.6478 307° West 108 124 10,000  Level Jacksonville Center
03:32PM 29.9864 -83.6767 303° West 108 124 10,000  Level Jacksonville Center
03:33PM 30.0031 -83.7033 306° West 108 124 10,000  Level Jacksonville Center
03:34PM 30.0194 -83.7297 306° West 108 124 10,000  Level Jacksonville Center
03:35PM 30.0403 -83.7564 312° West 108 124 10,000  Level Jacksonville Center
03:36PM 30.0650 -83.7781 323° Northwest 108 124 10,000  Level Jacksonville Center
03:38PM 30.0938 -83.8301 303° West  Level FlightAware Approximate
03:45PM 30.2183 -84.0560 303° West  Level FlightAware Approximate
03:46PM 30.2360 -84.0887 300° West  Level FlightAware Approximate
03:47PM 30.2526 -84.1218 300° West  Level FlightAware Approximate
03:48PM 30.2692 -84.1550 300° West  Level FlightAware Approximate
03:49PM 30.2866 -84.1874 313° West  Level FlightAware Approximate
03:50PM 30.3091 -84.2155 313° West  Level FlightAware Approximate
03:51PM 30.3316 -84.2436 313° West  Level FlightAware Approximate
03:52PM 30.3525 -84.2729 295° West  Level FlightAware Approximate
03:53PM 30.3664 -84.3077 295° West  Level FlightAware Approximate
03:54PM 30.3804 -84.3425 295° West  Level FlightAware Approximate
03:55PM 30.3833 -84.3500 295° West  Level FlightAware Approximate
03:56PM 30.3967 -84.3509 295° West  Level Estimated
03:57PM 30.3967 -84.3509 295° West  Level Estimated
03:58PM 30.3967 -84.3509 295° West  Level Estimated
03:59PM 30.3967 -84.3509 295° West  Level Estimated
04:00PM 30.3967 -84.3509 295° West  Level Estimated
04:01PM 30.3967 -84.3509 295° West  Level Estimated